sensor_id;sensor_type;location;lat;lon;timestamp;pressure;altitude;pressure_sealevel;temperature;humidity
21236;BME280;10775;42.678;26.324;2024-01-10T00:01:16;99854.34;;;-3.32;53.93
21236;BME280;10775;42.678;26.324;2024-01-10T00:03:42;99848.56;;;-3.28;55.72
21236;BME280;10775;42.678;26.324;2024-01-10T00:06:08;99868.50;;;-2.90;58.25
21236;BME280;10775;42.678;26.324;2024-01-10T00:08:33;99885.06;;;-3.16;53.09
21236;BME280;10775;42.678;26.324;2024-01-10T00:10:59;99895.69;;;-3.08;57.78
21236;BME280;10775;42.678;26.324;2024-01-10T00:13:24;99892.34;;;-3.38;48.84
21236;BME280;10775;42.678;26.324;2024-01-10T00:15:50;99883.81;;;-3.39;51.91
21236;BME280;10775;42.678;26.324;2024-01-10T00:18:15;99869.34;;;-3.38;52.70
21236;BME280;10775;42.678;26.324;2024-01-10T00:20:41;99875.78;;;-3.14;49.03
21236;BME280;10775;42.678;26.324;2024-01-10T00:23:06;99879.00;;;-3.33;46.30
21236;BME280;10775;42.678;26.324;2024-01-10T00:25:32;99879.44;;;-3.25;48.70
21236;BME280;10775;42.678;26.324;2024-01-10T00:27:58;99876.84;;;-3.41;45.72
21236;BME280;10775;42.678;26.324;2024-01-10T00:30:25;99884.09;;;-3.49;44.59
21236;BME280;10775;42.678;26.324;2024-01-10T00:32:50;99838.47;;;-3.41;49.37
21236;BME280;10775;42.678;26.324;2024-01-10T00:35:15;99864.47;;;-3.65;55.94
21236;BME280;10775;42.678;26.324;2024-01-10T00:37:41;99883.81;;;-4.00;54.23
21236;BME280;10775;42.678;26.324;2024-01-10T00:40:07;99889.09;;;-3.82;46.34
21236;BME280;10775;42.678;26.324;2024-01-10T00:42:33;99854.41;;;-3.31;42.21
21236;BME280;10775;42.678;26.324;2024-01-10T00:44:58;99861.06;;;-3.18;43.37
21236;BME280;10775;42.678;26.324;2024-01-10T00:47:24;99858.50;;;-3.18;41.65
21236;BME280;10775;42.678;26.324;2024-01-10T00:49:49;99836.34;;;-3.17;43.62
21236;BME280;10775;42.678;26.324;2024-01-10T00:52:15;99854.34;;;-2.99;44.77
21236;BME280;10775;42.678;26.324;2024-01-10T00:54:40;99862.28;;;-2.95;43.00
21236;BME280;10775;42.678;26.324;2024-01-10T00:57:06;99868.31;;;-3.25;42.59
21236;BME280;10775;42.678;26.324;2024-01-10T00:59:31;99847.28;;;-3.20;43.57
21236;BME280;10775;42.678;26.324;2024-01-10T01:01:56;99871.28;;;-3.34;41.66
21236;BME280;10775;42.678;26.324;2024-01-10T01:04:22;99844.72;;;-3.36;41.87
21236;BME280;10775;42.678;26.324;2024-01-10T01:06:47;99843.44;;;-3.44;41.47
21236;BME280;10775;42.678;26.324;2024-01-10T01:09:13;99865.34;;;-3.33;43.85
21236;BME280;10775;42.678;26.324;2024-01-10T01:11:41;99854.09;;;-3.37;41.09
21236;BME280;10775;42.678;26.324;2024-01-10T01:14:07;99860.38;;;-3.30;40.19
21236;BME280;10775;42.678;26.324;2024-01-10T01:16:33;99899.44;;;-3.18;38.99
21236;BME280;10775;42.678;26.324;2024-01-10T01:18:58;99890.00;;;-3.19;42.87
21236;BME280;10775;42.678;26.324;2024-01-10T01:21:24;99895.88;;;-3.36;40.61
21236;BME280;10775;42.678;26.324;2024-01-10T01:23:49;99885.53;;;-3.54;43.38
21236;BME280;10775;42.678;26.324;2024-01-10T01:26:14;99894.75;;;-3.41;47.97
21236;BME280;10775;42.678;26.324;2024-01-10T01:28:40;99892.88;;;-3.60;51.43
21236;BME280;10775;42.678;26.324;2024-01-10T01:31:05;99874.25;;;-4.04;52.90
21236;BME280;10775;42.678;26.324;2024-01-10T01:33:32;99866.75;;;-4.30;53.68
21236;BME280;10775;42.678;26.324;2024-01-10T01:35:57;99861.09;;;-4.10;57.02
21236;BME280;10775;42.678;26.324;2024-01-10T01:38:23;99867.47;;;-4.18;58.84
21236;BME280;10775;42.678;26.324;2024-01-10T01:40:49;99877.50;;;-4.21;56.33
21236;BME280;10775;42.678;26.324;2024-01-10T01:43:22;99866.91;;;-4.12;61.43
21236;BME280;10775;42.678;26.324;2024-01-10T01:45:51;99861.47;;;-4.04;57.69
21236;BME280;10775;42.678;26.324;2024-01-10T01:48:18;99864.78;;;-4.05;58.74
21236;BME280;10775;42.678;26.324;2024-01-10T01:50:45;99863.31;;;-4.16;61.10
21236;BME280;10775;42.678;26.324;2024-01-10T01:53:13;99890.09;;;-4.24;57.23
21236;BME280;10775;42.678;26.324;2024-01-10T01:55:39;99895.81;;;-4.28;59.61
21236;BME280;10775;42.678;26.324;2024-01-10T01:58:05;99883.97;;;-4.56;54.50
21236;BME280;10775;42.678;26.324;2024-01-10T02:00:30;99886.06;;;-4.64;53.36
21236;BME280;10775;42.678;26.324;2024-01-10T02:02:58;99875.03;;;-4.49;53.95
21236;BME280;10775;42.678;26.324;2024-01-10T02:05:24;99872.03;;;-4.42;55.16
21236;BME280;10775;42.678;26.324;2024-01-10T02:07:50;99877.75;;;-4.31;56.60
21236;BME280;10775;42.678;26.324;2024-01-10T02:10:15;99867.72;;;-4.13;59.59
21236;BME280;10775;42.678;26.324;2024-01-10T02:12:41;99869.38;;;-3.99;59.05
21236;BME280;10775;42.678;26.324;2024-01-10T02:15:07;99875.56;;;-4.10;59.34
21236;BME280;10775;42.678;26.324;2024-01-10T02:17:32;99875.72;;;-4.22;57.56
21236;BME280;10775;42.678;26.324;2024-01-10T02:20:15;99869.66;;;-4.39;54.29
21236;BME280;10775;42.678;26.324;2024-01-10T02:22:42;99852.28;;;-4.30;59.45
21236;BME280;10775;42.678;26.324;2024-01-10T02:25:09;99883.31;;;-4.39;57.78
21236;BME280;10775;42.678;26.324;2024-01-10T02:27:36;99863.72;;;-4.53;53.18
21236;BME280;10775;42.678;26.324;2024-01-10T02:30:05;99879.16;;;-4.37;57.42
21236;BME280;10775;42.678;26.324;2024-01-10T02:32:31;99869.22;;;-4.32;55.71
21236;BME280;10775;42.678;26.324;2024-01-10T02:34:57;99875.47;;;-4.27;59.48
21236;BME280;10775;42.678;26.324;2024-01-10T02:37:23;99877.75;;;-4.31;58.05
21236;BME280;10775;42.678;26.324;2024-01-10T02:39:48;99843.59;;;-4.33;57.53
21236;BME280;10775;42.678;26.324;2024-01-10T02:42:14;99881.19;;;-4.46;53.30
21236;BME280;10775;42.678;26.324;2024-01-10T02:44:39;99887.81;;;-4.34;60.69
21236;BME280;10775;42.678;26.324;2024-01-10T02:47:06;99883.03;;;-4.28;58.57
21236;BME280;10775;42.678;26.324;2024-01-10T02:49:32;99868.31;;;-4.32;57.42
21236;BME280;10775;42.678;26.324;2024-01-10T02:51:57;99853.19;;;-4.29;57.58
21236;BME280;10775;42.678;26.324;2024-01-10T02:54:23;99856.09;;;-4.38;52.65
21236;BME280;10775;42.678;26.324;2024-01-10T02:56:48;99849.56;;;-4.33;53.96
21236;BME280;10775;42.678;26.324;2024-01-10T02:59:14;99849.66;;;-4.31;54.95
21236;BME280;10775;42.678;26.324;2024-01-10T03:01:39;99848.59;;;-4.20;56.43
21236;BME280;10775;42.678;26.324;2024-01-10T03:04:05;99840.16;;;-4.19;53.36
21236;BME280;10775;42.678;26.324;2024-01-10T03:06:30;99848.16;;;-4.13;55.45
21236;BME280;10775;42.678;26.324;2024-01-10T03:08:56;99847.88;;;-4.32;52.59
21236;BME280;10775;42.678;26.324;2024-01-10T03:11:21;99848.63;;;-4.50;51.41
21236;BME280;10775;42.678;26.324;2024-01-10T03:13:50;99852.09;;;-4.48;52.69
21236;BME280;10775;42.678;26.324;2024-01-10T03:16:15;99861.13;;;-4.40;51.36
21236;BME280;10775;42.678;26.324;2024-01-10T03:18:41;99858.63;;;-4.38;51.80
21236;BME280;10775;42.678;26.324;2024-01-10T03:21:06;99854.69;;;-4.33;52.75
21236;BME280;10775;42.678;26.324;2024-01-10T03:23:32;99860.47;;;-4.50;50.85
21236;BME280;10775;42.678;26.324;2024-01-10T03:25:57;99838.47;;;-4.33;55.77
21236;BME280;10775;42.678;26.324;2024-01-10T03:28:23;99845.34;;;-4.32;51.83
21236;BME280;10775;42.678;26.324;2024-01-10T03:30:49;99860.41;;;-4.37;53.39
21236;BME280;10775;42.678;26.324;2024-01-10T03:33:15;99859.00;;;-4.47;51.33
21236;BME280;10775;42.678;26.324;2024-01-10T03:35:41;99842.09;;;-4.45;52.89
21236;BME280;10775;42.678;26.324;2024-01-10T03:38:07;99845.34;;;-4.32;53.10
21236;BME280;10775;42.678;26.324;2024-01-10T03:40:32;99847.28;;;-4.43;51.46
21236;BME280;10775;42.678;26.324;2024-01-10T03:42:58;99852.66;;;-4.39;51.71
21236;BME280;10775;42.678;26.324;2024-01-10T03:45:23;99823.16;;;-4.33;54.69
21236;BME280;10775;42.678;26.324;2024-01-10T03:47:49;99853.81;;;-4.33;52.09
21236;BME280;10775;42.678;26.324;2024-01-10T03:50:19;99856.00;;;-4.40;51.59
21236;BME280;10775;42.678;26.324;2024-01-10T03:52:45;99848.41;;;-4.38;51.64
21236;BME280;10775;42.678;26.324;2024-01-10T03:55:14;99846.13;;;-4.33;53.49
21236;BME280;10775;42.678;26.324;2024-01-10T03:57:40;99856.34;;;-4.33;52.25
21236;BME280;10775;42.678;26.324;2024-01-10T04:00:06;99821.03;;;-4.26;53.11
21236;BME280;10775;42.678;26.324;2024-01-10T04:02:32;99846.59;;;-4.26;52.48
21236;BME280;10775;42.678;26.324;2024-01-10T04:04:58;99835.31;;;-4.29;51.34
21236;BME280;10775;42.678;26.324;2024-01-10T04:07:23;99863.94;;;-4.20;52.83
21236;BME280;10775;42.678;26.324;2024-01-10T04:09:49;99848.88;;;-4.30;51.85
21236;BME280;10775;42.678;26.324;2024-01-10T04:12:14;99843.66;;;-4.17;54.48
21236;BME280;10775;42.678;26.324;2024-01-10T04:14:40;99854.84;;;-4.15;52.20
21236;BME280;10775;42.678;26.324;2024-01-10T04:17:05;99850.19;;;-4.22;51.84
21236;BME280;10775;42.678;26.324;2024-01-10T04:19:32;99837.50;;;-4.21;51.83
21236;BME280;10775;42.678;26.324;2024-01-10T04:21:58;99851.59;;;-4.12;53.05
21236;BME280;10775;42.678;26.324;2024-01-10T04:24:24;99872.91;;;-4.12;50.48
21236;BME280;10775;42.678;26.324;2024-01-10T04:26:50;99844.34;;;-4.05;53.98
21236;BME280;10775;42.678;26.324;2024-01-10T04:29:15;99873.72;;;-4.13;50.70
21236;BME280;10775;42.678;26.324;2024-01-10T04:31:41;99850.88;;;-4.10;50.88
21236;BME280;10775;42.678;26.324;2024-01-10T04:34:06;99865.16;;;-3.99;50.93
21236;BME280;10775;42.678;26.324;2024-01-10T04:36:32;99854.94;;;-3.99;51.80
21236;BME280;10775;42.678;26.324;2024-01-10T04:38:57;99870.44;;;-3.96;52.96
21236;BME280;10775;42.678;26.324;2024-01-10T04:41:23;99878.59;;;-3.86;52.96
21236;BME280;10775;42.678;26.324;2024-01-10T04:43:48;99866.03;;;-3.83;52.85
21236;BME280;10775;42.678;26.324;2024-01-10T04:46:14;99852.88;;;-3.89;52.14
21236;BME280;10775;42.678;26.324;2024-01-10T04:48:39;99879.75;;;-3.81;55.66
21236;BME280;10775;42.678;26.324;2024-01-10T04:51:04;99864.78;;;-3.90;52.34
21236;BME280;10775;42.678;26.324;2024-01-10T04:53:30;99873.31;;;-3.89;53.13
21236;BME280;10775;42.678;26.324;2024-01-10T04:55:55;99888.06;;;-3.85;52.29
21236;BME280;10775;42.678;26.324;2024-01-10T04:58:21;99886.47;;;-3.83;52.49
21236;BME280;10775;42.678;26.324;2024-01-10T05:00:47;99879.75;;;-3.81;52.49
21236;BME280;10775;42.678;26.324;2024-01-10T05:03:12;99883.28;;;-3.79;52.84
21236;BME280;10775;42.678;26.324;2024-01-10T05:05:38;99895.44;;;-3.75;53.36
21236;BME280;10775;42.678;26.324;2024-01-10T05:08:03;99882.94;;;-3.70;53.45
21236;BME280;10775;42.678;26.324;2024-01-10T05:10:29;99897.19;;;-3.74;52.86
21236;BME280;10775;42.678;26.324;2024-01-10T05:12:54;99896.88;;;-3.80;53.37
21236;BME280;10775;42.678;26.324;2024-01-10T05:15:20;99909.97;;;-3.74;53.57
21236;BME280;10775;42.678;26.324;2024-01-10T05:17:45;99906.38;;;-3.78;53.19
21236;BME280;10775;42.678;26.324;2024-01-10T05:20:10;99914.75;;;-3.80;52.33
21236;BME280;10775;42.678;26.324;2024-01-10T05:22:36;99930.00;;;-3.82;52.28
21236;BME280;10775;42.678;26.324;2024-01-10T05:25:02;99912.97;;;-3.81;52.81
21236;BME280;10775;42.678;26.324;2024-01-10T05:27:27;99935.53;;;-3.74;52.48
21236;BME280;10775;42.678;26.324;2024-01-10T05:29:53;99941.47;;;-3.75;52.34
21236;BME280;10775;42.678;26.324;2024-01-10T05:32:18;99932.22;;;-3.73;52.31
21236;BME280;10775;42.678;26.324;2024-01-10T05:34:44;99948.84;;;-3.65;52.68
21236;BME280;10775;42.678;26.324;2024-01-10T05:37:10;99951.41;;;-3.65;51.96
21236;BME280;10775;42.678;26.324;2024-01-10T05:39:36;99958.91;;;-3.68;52.31
21236;BME280;10775;42.678;26.324;2024-01-10T05:42:01;99973.78;;;-3.46;51.35
21236;BME280;10775;42.678;26.324;2024-01-10T05:44:30;99956.56;;;-3.48;52.86
21236;BME280;10775;42.678;26.324;2024-01-10T05:46:55;99957.66;;;-3.45;52.11
21236;BME280;10775;42.678;26.324;2024-01-10T05:49:25;99955.97;;;-3.44;52.70
21236;BME280;10775;42.678;26.324;2024-01-10T05:51:50;99968.16;;;-3.55;52.29
21236;BME280;10775;42.678;26.324;2024-01-10T05:54:16;99972.56;;;-3.53;54.78
21236;BME280;10775;42.678;26.324;2024-01-10T05:56:43;99970.00;;;-3.53;54.83
21236;BME280;10775;42.678;26.324;2024-01-10T05:59:08;99977.13;;;-3.47;55.98
21236;BME280;10775;42.678;26.324;2024-01-10T06:01:33;99977.84;;;-3.35;56.41
21236;BME280;10775;42.678;26.324;2024-01-10T06:03:59;99987.09;;;-3.37;54.63
21236;BME280;10775;42.678;26.324;2024-01-10T06:06:24;99987.78;;;-3.39;57.13
21236;BME280;10775;42.678;26.324;2024-01-10T06:08:50;99994.59;;;-3.40;60.41
21236;BME280;10775;42.678;26.324;2024-01-10T06:11:15;99991.50;;;-3.34;62.36
21236;BME280;10775;42.678;26.324;2024-01-10T06:13:41;99987.97;;;-3.36;61.25
21236;BME280;10775;42.678;26.324;2024-01-10T06:16:07;100002.44;;;-3.37;62.01
21236;BME280;10775;42.678;26.324;2024-01-10T06:18:32;99998.22;;;-3.51;61.48
21236;BME280;10775;42.678;26.324;2024-01-10T06:20:58;100012.41;;;-3.41;60.63
21236;BME280;10775;42.678;26.324;2024-01-10T06:23:23;100004.00;;;-3.24;61.66
21236;BME280;10775;42.678;26.324;2024-01-10T06:25:49;100007.88;;;-3.16;62.41
21236;BME280;10775;42.678;26.324;2024-01-10T06:28:14;100020.53;;;-3.02;65.50
21236;BME280;10775;42.678;26.324;2024-01-10T06:30:39;100025.44;;;-3.22;63.51
21236;BME280;10775;42.678;26.324;2024-01-10T06:33:05;100021.56;;;-3.30;65.33
21236;BME280;10775;42.678;26.324;2024-01-10T06:35:32;100011.25;;;-3.32;66.26
21236;BME280;10775;42.678;26.324;2024-01-10T06:37:57;100021.22;;;-3.21;66.14
21236;BME280;10775;42.678;26.324;2024-01-10T06:40:23;100020.69;;;-3.31;61.21
21236;BME280;10775;42.678;26.324;2024-01-10T06:42:48;100019.25;;;-3.11;66.14
21236;BME280;10775;42.678;26.324;2024-01-10T06:45:14;100024.59;;;-2.91;66.60
21236;BME280;10775;42.678;26.324;2024-01-10T06:47:39;100026.66;;;-2.84;67.21
21236;BME280;10775;42.678;26.324;2024-01-10T06:50:05;100029.47;;;-2.79;62.07
21236;BME280;10775;42.678;26.324;2024-01-10T06:52:31;100034.47;;;-2.66;68.51
21236;BME280;10775;42.678;26.324;2024-01-10T06:54:57;100028.88;;;-2.59;71.48
21236;BME280;10775;42.678;26.324;2024-01-10T06:57:22;100035.47;;;-2.31;80.49
21236;BME280;10775;42.678;26.324;2024-01-10T06:59:48;100032.50;;;-2.23;75.78
21236;BME280;10775;42.678;26.324;2024-01-10T07:02:14;100043.00;;;-2.18;81.90
21236;BME280;10775;42.678;26.324;2024-01-10T07:04:40;100042.13;;;-2.19;76.30
21236;BME280;10775;42.678;26.324;2024-01-10T07:07:06;100046.06;;;-2.09;79.60
21236;BME280;10775;42.678;26.324;2024-01-10T07:09:33;100045.31;;;-2.23;79.37
21236;BME280;10775;42.678;26.324;2024-01-10T07:11:59;100052.38;;;-2.19;77.98
21236;BME280;10775;42.678;26.324;2024-01-10T07:14:24;100056.78;;;-2.16;81.27
21236;BME280;10775;42.678;26.324;2024-01-10T07:16:50;100053.50;;;-2.30;78.68
21236;BME280;10775;42.678;26.324;2024-01-10T07:19:17;100064.22;;;-2.37;75.58
21236;BME280;10775;42.678;26.324;2024-01-10T07:21:42;100071.22;;;-2.02;87.55
21236;BME280;10775;42.678;26.324;2024-01-10T07:24:09;100067.34;;;-1.93;79.63
21236;BME280;10775;42.678;26.324;2024-01-10T07:26:36;100074.47;;;-1.88;77.76
21236;BME280;10775;42.678;26.324;2024-01-10T07:29:02;100069.56;;;-1.67;90.51
21236;BME280;10775;42.678;26.324;2024-01-10T07:31:28;100081.03;;;-1.60;89.17
21236;BME280;10775;42.678;26.324;2024-01-10T07:33:55;100086.06;;;-1.62;90.06
21236;BME280;10775;42.678;26.324;2024-01-10T07:36:25;100081.81;;;-1.61;89.32
21236;BME280;10775;42.678;26.324;2024-01-10T07:38:56;100089.44;;;-1.63;86.42
21236;BME280;10775;42.678;26.324;2024-01-10T07:41:22;100085.47;;;-1.40;90.63
21236;BME280;10775;42.678;26.324;2024-01-10T07:43:49;100085.16;;;-1.12;93.19
21236;BME280;10775;42.678;26.324;2024-01-10T07:46:14;100099.16;;;-1.05;90.15
21236;BME280;10775;42.678;26.324;2024-01-10T07:48:40;100104.06;;;-1.27;77.35
21236;BME280;10775;42.678;26.324;2024-01-10T07:51:06;100105.81;;;-1.26;90.00
21236;BME280;10775;42.678;26.324;2024-01-10T07:53:32;100106.75;;;-1.59;81.75
21236;BME280;10775;42.678;26.324;2024-01-10T07:55:57;100106.59;;;-1.45;86.53
21236;BME280;10775;42.678;26.324;2024-01-10T07:58:22;100109.69;;;-1.35;87.71
21236;BME280;10775;42.678;26.324;2024-01-10T08:00:48;100108.25;;;-1.46;80.89
21236;BME280;10775;42.678;26.324;2024-01-10T08:03:13;100106.59;;;-1.45;78.02
21236;BME280;10775;42.678;26.324;2024-01-10T08:05:39;100114.38;;;-1.26;80.74
21236;BME280;10775;42.678;26.324;2024-01-10T08:08:05;100107.09;;;-1.00;83.81
21236;BME280;10775;42.678;26.324;2024-01-10T08:10:30;100116.63;;;-0.98;81.24
21236;BME280;10775;42.678;26.324;2024-01-10T08:12:56;100113.66;;;-0.89;83.45
21236;BME280;10775;42.678;26.324;2024-01-10T08:15:22;100117.31;;;-1.02;75.53
21236;BME280;10775;42.678;26.324;2024-01-10T08:17:47;100120.72;;;-1.19;75.86
21236;BME280;10775;42.678;26.324;2024-01-10T08:20:13;100109.78;;;-1.15;74.21
21236;BME280;10775;42.678;26.324;2024-01-10T08:22:40;100112.81;;;-1.06;71.58
21236;BME280;10775;42.678;26.324;2024-01-10T08:25:06;100115.31;;;-0.90;75.97
21236;BME280;10775;42.678;26.324;2024-01-10T08:27:32;100109.28;;;-0.72;77.24
21236;BME280;10775;42.678;26.324;2024-01-10T08:29:59;100110.47;;;-0.83;73.54
21236;BME280;10775;42.678;26.324;2024-01-10T08:32:25;100104.38;;;-0.68;80.44
21236;BME280;10775;42.678;26.324;2024-01-10T08:34:50;100105.34;;;-0.48;76.79
21236;BME280;10775;42.678;26.324;2024-01-10T08:37:16;100095.06;;;-0.28;78.71
21236;BME280;10775;42.678;26.324;2024-01-10T08:39:43;100098.34;;;-0.50;74.34
21236;BME280;10775;42.678;26.324;2024-01-10T08:42:09;100101.09;;;-0.65;69.54
21236;BME280;10775;42.678;26.324;2024-01-10T08:44:35;100100.59;;;-0.38;73.80
21236;BME280;10775;42.678;26.324;2024-01-10T08:47:01;100087.03;;;-0.16;70.19
21236;BME280;10775;42.678;26.324;2024-01-10T08:49:26;100078.84;;;-0.08;74.94
21236;BME280;10775;42.678;26.324;2024-01-10T08:51:52;100081.09;;;-0.15;71.87
21236;BME280;10775;42.678;26.324;2024-01-10T08:54:18;100089.00;;;-0.30;68.49
21236;BME280;10775;42.678;26.324;2024-01-10T08:56:45;100089.94;;;-0.66;59.02
21236;BME280;10775;42.678;26.324;2024-01-10T08:59:12;100089.47;;;-0.75;64.96
21236;BME280;10775;42.678;26.324;2024-01-10T09:01:38;100080.38;;;-0.50;67.15
21236;BME280;10775;42.678;26.324;2024-01-10T09:04:07;100072.41;;;-0.37;67.75
21236;BME280;10775;42.678;26.324;2024-01-10T09:06:32;100062.22;;;-0.16;69.04
21236;BME280;10775;42.678;26.324;2024-01-10T09:08:59;100067.75;;;-0.26;68.48
21236;BME280;10775;42.678;26.324;2024-01-10T09:11:24;100059.94;;;-0.10;67.29
21236;BME280;10775;42.678;26.324;2024-01-10T09:13:50;100058.91;;;0.06;72.84
21236;BME280;10775;42.678;26.324;2024-01-10T09:16:17;100059.53;;;0.01;64.80
21236;BME280;10775;42.678;26.324;2024-01-10T09:18:44;100050.84;;;-0.40;61.35
21236;BME280;10775;42.678;26.324;2024-01-10T09:21:10;100047.88;;;-0.11;71.35
21236;BME280;10775;42.678;26.324;2024-01-10T09:23:35;100054.88;;;0.32;73.48
21236;BME280;10775;42.678;26.324;2024-01-10T09:26:02;100049.91;;;0.16;63.30
21236;BME280;10775;42.678;26.324;2024-01-10T09:28:27;100055.50;;;0.07;65.94
21236;BME280;10775;42.678;26.324;2024-01-10T09:30:53;100050.28;;;0.45;76.73
21236;BME280;10775;42.678;26.324;2024-01-10T09:33:19;100057.13;;;0.25;66.60
21236;BME280;10775;42.678;26.324;2024-01-10T09:35:45;100057.91;;;-0.17;58.46
21236;BME280;10775;42.678;26.324;2024-01-10T09:38:10;100060.09;;;-0.62;55.46
21236;BME280;10775;42.678;26.324;2024-01-10T09:40:37;100057.19;;;-0.70;55.70
21236;BME280;10775;42.678;26.324;2024-01-10T09:43:04;100046.00;;;-0.52;59.96
21236;BME280;10775;42.678;26.324;2024-01-10T09:45:31;100054.56;;;-0.71;55.20
21236;BME280;10775;42.678;26.324;2024-01-10T09:48:00;100051.44;;;-0.27;66.51
21236;BME280;10775;42.678;26.324;2024-01-10T09:50:26;100048.69;;;0.08;63.56
21236;BME280;10775;42.678;26.324;2024-01-10T09:52:53;100047.03;;;0.29;69.14
21236;BME280;10775;42.678;26.324;2024-01-10T09:55:22;100040.94;;;0.68;75.54
21236;BME280;10775;42.678;26.324;2024-01-10T09:57:49;100040.38;;;0.75;72.50
21236;BME280;10775;42.678;26.324;2024-01-10T10:00:17;100030.41;;;0.84;72.37
21236;BME280;10775;42.678;26.324;2024-01-10T10:02:45;100027.81;;;0.61;68.06
21236;BME280;10775;42.678;26.324;2024-01-10T10:05:16;100022.53;;;0.79;69.37
21236;BME280;10775;42.678;26.324;2024-01-10T10:07:45;100024.44;;;0.22;62.73
21236;BME280;10775;42.678;26.324;2024-01-10T10:10:11;100020.94;;;0.01;59.21
21236;BME280;10775;42.678;26.324;2024-01-10T10:12:51;100006.84;;;0.12;64.13
21236;BME280;10775;42.678;26.324;2024-01-10T10:15:23;100008.25;;;0.25;67.10
21236;BME280;10775;42.678;26.324;2024-01-10T10:17:50;100003.19;;;0.26;62.67
21236;BME280;10775;42.678;26.324;2024-01-10T10:20:41;99994.44;;;0.22;60.86
21236;BME280;10775;42.678;26.324;2024-01-10T10:23:09;99996.22;;;0.45;65.35
21236;BME280;10775;42.678;26.324;2024-01-10T10:25:43;99995.66;;;0.52;58.89
21236;BME280;10775;42.678;26.324;2024-01-10T10:28:09;99997.59;;;0.57;62.56
21236;BME280;10775;42.678;26.324;2024-01-10T10:30:34;99995.72;;;0.53;63.04
21236;BME280;10775;42.678;26.324;2024-01-10T10:33:01;99988.19;;;0.58;61.27
21236;BME280;10775;42.678;26.324;2024-01-10T10:35:26;99984.44;;;0.29;57.04
21236;BME280;10775;42.678;26.324;2024-01-10T10:37:52;99974.41;;;0.78;66.50
21236;BME280;10775;42.678;26.324;2024-01-10T10:40:20;99975.75;;;0.90;64.83
21236;BME280;10775;42.678;26.324;2024-01-10T10:42:47;99973.31;;;0.94;64.91
21236;BME280;10775;42.678;26.324;2024-01-10T10:45:17;99968.31;;;0.76;59.30
21236;BME280;10775;42.678;26.324;2024-01-10T10:47:45;99967.34;;;0.52;58.71
21236;BME280;10775;42.678;26.324;2024-01-10T10:50:22;99964.69;;;0.71;63.22
21236;BME280;10775;42.678;26.324;2024-01-10T10:52:49;99975.94;;;0.73;59.62
21236;BME280;10775;42.678;26.324;2024-01-10T10:55:16;99968.66;;;0.42;56.14
21236;BME280;10775;42.678;26.324;2024-01-10T10:57:44;99965.84;;;0.57;57.08
21236;BME280;10775;42.678;26.324;2024-01-10T11:00:12;99963.28;;;0.36;53.90
21236;BME280;10775;42.678;26.324;2024-01-10T11:02:40;99960.66;;;0.15;55.28
21236;BME280;10775;42.678;26.324;2024-01-10T11:05:08;99959.16;;;0.20;53.38
21236;BME280;10775;42.678;26.324;2024-01-10T11:07:38;99956.69;;;0.21;56.00
21236;BME280;10775;42.678;26.324;2024-01-10T11:10:08;99953.03;;;0.16;56.99
21236;BME280;10775;42.678;26.324;2024-01-10T11:12:48;99952.34;;;0.41;62.37
21236;BME280;10775;42.678;26.324;2024-01-10T11:20:54;99941.94;;;1.04;68.89
21236;BME280;10775;42.678;26.324;2024-01-10T11:23:43;99947.56;;;1.17;64.91
21236;BME280;10775;42.678;26.324;2024-01-10T11:26:10;99940.88;;;0.99;60.71
21236;BME280;10775;42.678;26.324;2024-01-10T11:28:36;99932.63;;;1.30;68.98
21236;BME280;10775;42.678;26.324;2024-01-10T11:31:06;99938.56;;;1.52;70.86
21236;BME280;10775;42.678;26.324;2024-01-10T11:33:35;99932.16;;;1.41;61.53
21236;BME280;10775;42.678;26.324;2024-01-10T11:36:15;99932.41;;;1.02;60.08
21236;BME280;10775;42.678;26.324;2024-01-10T11:38:41;99930.81;;;1.28;64.16
21236;BME280;10775;42.678;26.324;2024-01-10T11:41:10;99926.09;;;0.94;57.25
21236;BME280;10775;42.678;26.324;2024-01-10T11:43:36;99925.00;;;0.87;59.03
21236;BME280;10775;42.678;26.324;2024-01-10T11:46:02;99925.25;;;0.72;61.38
21236;BME280;10775;42.678;26.324;2024-01-10T11:48:31;99924.69;;;0.79;60.79
21236;BME280;10775;42.678;26.324;2024-01-10T11:50:57;99921.28;;;1.03;65.72
21236;BME280;10775;42.678;26.324;2024-01-10T11:53:43;99924.38;;;1.17;58.63
21236;BME280;10775;42.678;26.324;2024-01-10T11:56:15;99915.69;;;1.15;64.66
21236;BME280;10775;42.678;26.324;2024-01-10T12:01:27;99919.41;;;0.99;60.34
21236;BME280;10775;42.678;26.324;2024-01-10T12:03:53;99919.25;;;0.72;59.31
21236;BME280;10775;42.678;26.324;2024-01-10T12:06:21;99918.59;;;1.00;62.06
21236;BME280;10775;42.678;26.324;2024-01-10T12:08:47;99920.19;;;1.43;67.74
21236;BME280;10775;42.678;26.324;2024-01-10T12:11:12;99916.44;;;1.83;71.35
21236;BME280;10775;42.678;26.324;2024-01-10T12:13:38;99910.06;;;1.97;68.27
21236;BME280;10775;42.678;26.324;2024-01-10T12:16:04;99921.94;;;2.17;69.76
21236;BME280;10775;42.678;26.324;2024-01-10T12:18:30;99915.84;;;2.43;75.23
21236;BME280;10775;42.678;26.324;2024-01-10T12:20:55;99909.31;;;2.01;67.38
21236;BME280;10775;42.678;26.324;2024-01-10T12:23:21;99917.69;;;2.20;71.28
21236;BME280;10775;42.678;26.324;2024-01-10T12:25:48;99916.78;;;2.17;68.24
21236;BME280;10775;42.678;26.324;2024-01-10T12:28:17;99921.44;;;2.04;63.33
21236;BME280;10775;42.678;26.324;2024-01-10T12:30:42;99924.09;;;2.05;64.60
21236;BME280;10775;42.678;26.324;2024-01-10T12:33:11;99929.16;;;2.28;61.60
21236;BME280;10775;42.678;26.324;2024-01-10T12:35:36;99926.16;;;2.41;67.24
21236;BME280;10775;42.678;26.324;2024-01-10T12:38:07;99930.56;;;2.45;66.98
21236;BME280;10775;42.678;26.324;2024-01-10T12:40:33;99928.94;;;1.96;58.45
21236;BME280;10775;42.678;26.324;2024-01-10T12:43:03;99922.97;;;2.23;63.94
21236;BME280;10775;42.678;26.324;2024-01-10T12:45:29;99924.63;;;2.22;65.08
21236;BME280;10775;42.678;26.324;2024-01-10T12:47:54;99922.03;;;1.95;58.98
21236;BME280;10775;42.678;26.324;2024-01-10T12:50:20;99919.44;;;1.95;61.73
21236;BME280;10775;42.678;26.324;2024-01-10T12:52:45;99926.41;;;1.73;57.57
21236;BME280;10775;42.678;26.324;2024-01-10T12:55:12;99923.38;;;1.60;60.34